createdAt,value
2023-05-05T08:31:24.394Z,1.95
2023-05-05T08:33:51.381Z,2.17
2023-05-05T08:36:18.346Z,1.63
2023-05-05T08:38:45.307Z,1.90
2023-05-05T08:41:14.480Z,1.73
2023-05-05T08:43:44.054Z,1.58
2023-05-05T08:46:12.669Z,1.70
2023-05-05T08:48:42.077Z,1.27
2023-05-05T08:51:19.900Z,1.33
2023-05-05T08:54:08.375Z,1.48
2023-05-05T08:56:41.761Z,1.10
2023-05-05T08:59:11.368Z,1.60
2023-05-05T09:01:38.527Z,1.80
2023-05-05T09:04:07.895Z,1.02
2023-05-05T09:06:36.080Z,1.85
2023-05-05T09:09:03.291Z,1.50
2023-05-05T09:11:30.270Z,1.30
2023-05-05T09:13:57.222Z,1.20
2023-05-05T09:16:24.398Z,0.70
2023-05-05T09:19:00.602Z,0.75
2023-05-05T09:21:28.006Z,0.95
2023-05-05T09:24:24.206Z,0.90
2023-05-05T09:26:51.226Z,0.65
2023-05-05T09:29:22.967Z,0.77
2023-05-05T09:32:09.075Z,0.98
2023-05-05T09:34:36.453Z,0.65
2023-05-05T09:37:04.041Z,0.55
2023-05-05T09:39:31.240Z,0.90
2023-05-05T09:41:58.738Z,1.02
2023-05-05T09:44:36.827Z,0.80
2023-05-05T09:47:09.512Z,0.93
2023-05-05T09:49:41.918Z,0.63
2023-05-05T09:52:16.061Z,0.80
2023-05-05T09:54:44.236Z,0.77
2023-05-05T09:57:29.651Z,0.57
2023-05-05T10:00:01.175Z,0.70
2023-05-05T10:02:36.281Z,0.68
2023-05-05T10:05:09.036Z,0.85
2023-05-05T10:07:37.536Z,0.70
2023-05-05T10:10:07.033Z,0.50
2023-05-05T10:12:37.223Z,0.90
2023-05-05T10:15:06.204Z,1.10
2023-05-05T10:20:04.234Z,1.00
2023-05-05T10:22:35.577Z,0.73
2023-05-05T10:25:14.390Z,0.70
2023-05-05T10:27:46.700Z,0.85
2023-05-05T10:30:20.865Z,1.05
2023-05-05T10:33:00.595Z,0.88
2023-05-05T10:35:38.643Z,0.55
2023-05-05T10:38:12.653Z,0.95
2023-05-05T10:40:45.995Z,0.70
2023-05-05T10:43:16.006Z,0.40
2023-05-05T10:45:43.934Z,0.70
2023-05-05T10:48:19.112Z,0.67
2023-05-05T10:50:52.098Z,0.65
2023-05-05T10:53:28.065Z,0.60
2023-05-05T10:56:04.488Z,1.02
2023-05-05T10:58:46.849Z,0.95
2023-05-05T11:01:35.712Z,0.90
2023-05-05T11:04:22.772Z,0.93
2023-05-05T11:07:09.778Z,0.95
2023-05-05T11:09:55.892Z,0.73
2023-05-05T11:12:22.897Z,0.77
2023-05-05T11:15:28.383Z,0.60
2023-05-05T11:17:58.957Z,0.63
2023-05-05T11:20:40.726Z,0.60
2023-05-05T11:23:07.795Z,0.73
2023-05-05T11:25:34.774Z,0.40
2023-05-05T11:28:30.164Z,0.57
2023-05-05T11:30:58.117Z,0.85
2023-05-05T11:33:38.018Z,0.50
2023-05-05T11:36:07.275Z,0.68
2023-05-05T11:38:58.972Z,0.32
2023-05-05T11:41:34.542Z,0.40
2023-05-05T11:44:11.918Z,0.40
2023-05-05T11:47:05.452Z,0.50
2023-05-05T11:49:36.997Z,0.80
2023-05-05T11:52:06.867Z,0.40
2023-05-05T11:54:38.850Z,0.40
2023-05-05T11:57:07.529Z,0.35
2023-05-05T11:59:36.633Z,0.50
2023-05-05T12:02:04.760Z,0.35
2023-05-05T12:04:32.408Z,0.40
2023-05-05T12:07:00.153Z,0.47
2023-05-05T12:09:27.629Z,0.20
2023-05-05T12:11:56.574Z,0.40
2023-05-05T12:17:04.499Z,0.30
2023-05-05T12:19:33.771Z,0.65
2023-05-05T12:22:05.343Z,0.38
2023-05-05T12:24:32.412Z,0.40
2023-05-05T12:27:09.678Z,0.45
2023-05-05T12:29:36.872Z,0.47
2023-05-05T12:32:04.568Z,0.73
2023-05-05T12:34:32.254Z,0.47
2023-05-05T12:37:01.211Z,0.40
2023-05-05T12:42:05.336Z,0.30
2023-05-05T12:44:36.481Z,0.30
2023-05-05T12:47:04.260Z,0.35
2023-05-05T12:49:34.516Z,0.50
2023-05-05T12:52:01.601Z,0.52
2023-05-05T12:54:31.283Z,0.30
2023-05-05T12:56:58.992Z,0.30
2023-05-05T12:59:25.842Z,0.30
2023-05-05T13:01:55.122Z,0.28
2023-05-05T13:04:24.330Z,0.40
2023-05-05T13:09:35.000Z,0.40
2023-05-05T13:12:03.567Z,0.50
2023-05-05T13:14:32.140Z,0.80
2023-05-05T13:16:59.163Z,0.40
2023-05-05T13:19:26.408Z,0.50
2023-05-05T13:21:54.396Z,0.50
2023-05-05T13:24:31.067Z,0.80
2023-05-05T13:27:03.235Z,0.30
2023-05-05T13:29:31.734Z,0.20
2023-05-05T13:31:59.093Z,0.30
2023-05-05T13:34:26.055Z,0.32
2023-05-05T13:36:53.080Z,0.30
2023-05-05T13:39:20.240Z,0.40
2023-05-05T13:41:47.235Z,0.40
2023-05-05T13:44:14.653Z,0.45
2023-05-05T13:46:43.029Z,0.60
2023-05-05T13:49:10.095Z,0.70
2023-05-05T13:51:38.504Z,0.40
2023-05-05T13:54:06.749Z,0.30
2023-05-05T13:56:34.923Z,0.35
2023-05-05T13:59:02.668Z,0.30
2023-05-05T14:01:30.011Z,0.38
2023-05-05T14:03:57.902Z,0.40
2023-05-05T14:06:25.209Z,0.27
2023-05-05T14:08:52.330Z,0.60
2023-05-05T14:11:20.896Z,0.35
2023-05-05T14:13:48.393Z,0.57
2023-05-05T14:16:15.657Z,1.40
2023-05-05T14:18:42.903Z,1.67
2023-05-05T14:21:10.184Z,0.35
2023-05-05T14:23:37.329Z,0.50
2023-05-05T14:26:04.409Z,0.38
2023-05-05T14:28:31.386Z,0.43
2023-05-05T14:30:58.352Z,0.38
2023-05-05T14:33:25.350Z,0.45
2023-05-05T14:35:52.493Z,0.40
2023-05-05T14:38:19.508Z,1.30
2023-05-05T14:40:46.624Z,0.52
2023-05-05T14:43:13.586Z,0.93
2023-05-05T14:45:40.536Z,0.60
2023-05-05T14:48:07.663Z,0.60
2023-05-05T14:50:35.238Z,0.47
2023-05-05T14:53:02.274Z,0.43
2023-05-05T14:55:29.484Z,0.50
2023-05-05T14:57:56.564Z,0.32
2023-05-05T15:00:23.579Z,0.30
2023-05-05T15:02:50.598Z,0.55
2023-05-05T15:05:17.632Z,0.40
2023-05-05T15:07:44.743Z,0.60
2023-05-05T15:10:12.180Z,0.63
2023-05-05T15:12:39.451Z,0.50
2023-05-05T15:15:08.969Z,0.75
2023-05-05T15:17:37.738Z,0.60
2023-05-05T15:20:08.402Z,0.63
2023-05-05T15:22:35.642Z,0.80
2023-05-05T15:25:02.768Z,0.40
2023-05-05T15:27:30.863Z,0.50
2023-05-05T15:29:57.920Z,0.40
2023-05-05T15:32:24.957Z,0.40
2023-05-05T15:34:52.045Z,0.60
2023-05-05T15:37:19.012Z,0.57
2023-05-05T15:39:45.961Z,0.40
2023-05-05T15:42:12.980Z,0.40
2023-05-05T15:44:39.891Z,0.52
2023-05-05T15:47:07.773Z,0.93
2023-05-05T15:49:34.939Z,0.77
2023-05-05T15:52:01.980Z,0.57
2023-05-05T15:54:28.986Z,0.70
2023-05-05T15:56:55.930Z,0.82
2023-05-05T15:59:23.159Z,0.60
2023-05-05T16:01:50.030Z,0.80
2023-05-05T16:04:17.046Z,0.47
2023-05-05T16:06:44.124Z,0.50
2023-05-05T16:09:11.152Z,0.60
2023-05-05T16:11:38.239Z,0.60
2023-05-05T16:14:05.255Z,0.75
2023-05-05T16:16:32.259Z,1.10
2023-05-05T16:18:59.289Z,0.70
2023-05-05T16:21:26.324Z,0.65
2023-05-05T16:23:53.445Z,0.85
2023-05-05T16:26:20.616Z,0.82
2023-05-05T16:28:47.788Z,0.68
2023-05-05T16:31:14.971Z,0.60
2023-05-05T16:33:44.107Z,0.90
2023-05-05T16:36:12.648Z,0.93
2023-05-05T16:38:40.731Z,0.80
2023-05-05T16:41:08.437Z,1.20
2023-05-05T16:43:37.407Z,1.20
2023-05-05T16:48:31.430Z,1.58
2023-05-05T16:50:58.793Z,1.48
2023-05-05T16:53:26.260Z,4.25
2023-05-05T16:55:53.773Z,1.33
2023-05-05T16:58:22.889Z,1.48
2023-05-05T17:00:51.097Z,1.08
2023-05-05T17:03:22.814Z,1.25
2023-05-05T17:05:50.504Z,1.02
2023-05-05T17:08:17.651Z,1.85
2023-05-05T17:10:45.620Z,2.08
